createdAt,value
2023-02-23T00:00:57.622Z,9.07
2023-02-23T00:02:05.888Z,9.16
2023-02-23T00:03:07.575Z,9.25
2023-02-23T00:04:10.356Z,9.34
2023-02-23T00:05:11.913Z,9.29
2023-02-23T00:06:14.642Z,9.39
2023-02-23T00:07:19.287Z,9.37
2023-02-23T00:08:23.499Z,9.44
2023-02-23T00:09:25.127Z,9.51
2023-02-23T00:10:30.487Z,9.55
2023-02-23T00:11:33.752Z,9.50
2023-02-23T00:12:36.212Z,9.43
2023-02-23T00:13:38.863Z,9.23
2023-02-23T00:14:41.398Z,9.37
2023-02-23T00:15:44.454Z,9.44
2023-02-23T00:16:47.063Z,9.53
2023-02-23T00:17:48.594Z,9.59
2023-02-23T00:18:53.872Z,9.53
2023-02-23T00:19:55.617Z,9.60
2023-02-23T00:20:58.721Z,9.52
2023-02-23T00:22:01.107Z,9.46
2023-02-23T00:23:04.564Z,9.39
2023-02-23T00:24:08.890Z,9.46
2023-02-23T00:25:12.630Z,9.48
2023-02-23T00:26:14.115Z,9.52
2023-02-23T00:27:19.031Z,9.52
2023-02-23T00:28:20.580Z,9.38
2023-02-23T00:29:25.688Z,9.50
2023-02-23T00:30:27.321Z,9.54
2023-02-23T00:31:31.560Z,9.59
2023-02-23T00:32:33.157Z,9.61
2023-02-23T00:33:35.660Z,9.56
2023-02-23T00:34:37.259Z,9.18
2023-02-23T00:35:39.745Z,9.12
2023-02-23T00:36:42.088Z,9.17
2023-02-23T00:37:45.883Z,9.33
2023-02-23T00:38:47.425Z,9.22
2023-02-23T00:39:50.245Z,8.60
2023-02-23T00:40:51.757Z,8.53
2023-02-23T00:41:55.700Z,8.49
2023-02-23T00:42:58.132Z,8.68
2023-02-23T00:44:01.924Z,8.93
2023-02-23T00:45:08.682Z,9.07
2023-02-23T00:46:11.484Z,9.13
2023-02-23T00:47:14.339Z,9.23
2023-02-23T00:48:16.868Z,8.95
2023-02-23T00:49:20.064Z,8.52
2023-02-23T00:50:23.222Z,7.95
2023-02-23T00:51:27.425Z,7.25
2023-02-23T00:52:29.937Z,7.02
2023-02-23T00:53:32.172Z,6.99
2023-02-23T00:54:34.773Z,7.18
2023-02-23T00:55:40.488Z,6.86
2023-02-23T00:56:43.355Z,6.57
2023-02-23T00:57:44.900Z,6.44
2023-02-23T00:58:47.317Z,6.24
2023-02-23T00:59:49.022Z,6.22
2023-02-23T01:00:51.699Z,6.18
2023-02-23T01:01:53.167Z,6.47
2023-02-23T01:02:56.906Z,6.88
2023-02-23T01:03:58.687Z,7.01
2023-02-23T01:05:01.277Z,7.35
2023-02-23T01:06:07.972Z,7.60
2023-02-23T01:07:12.916Z,7.83
2023-02-23T01:08:15.390Z,7.83
2023-02-23T01:09:27.129Z,7.50
2023-02-23T01:10:28.734Z,7.43
2023-02-23T01:11:31.874Z,7.16
2023-02-23T01:12:33.395Z,7.08
2023-02-23T01:13:36.367Z,7.23
2023-02-23T01:14:38.037Z,7.27
2023-02-23T01:15:44.430Z,6.98
2023-02-23T01:16:46.202Z,6.83
2023-02-23T01:17:48.694Z,6.82
2023-02-23T01:18:51.648Z,6.79
2023-02-23T01:19:55.183Z,6.84
2023-02-23T01:20:56.768Z,7.25
2023-02-23T01:21:59.278Z,7.52
2023-02-23T01:23:01.729Z,7.84
2023-02-23T01:24:05.107Z,8.05
2023-02-23T01:25:07.195Z,8.09
2023-02-23T01:26:16.410Z,8.01
2023-02-23T01:27:17.906Z,8.07
2023-02-23T01:28:20.567Z,8.12
2023-02-23T01:29:22.119Z,8.11
2023-02-23T01:30:24.620Z,8.17
2023-02-23T01:31:27.719Z,8.32
2023-02-23T01:32:31.515Z,8.35
2023-02-23T01:33:33.129Z,8.47
2023-02-23T01:34:37.006Z,8.64
2023-02-23T01:35:38.485Z,8.68
2023-02-23T01:36:42.972Z,8.76
2023-02-23T01:37:44.492Z,8.80
2023-02-23T01:38:46.985Z,8.68
2023-02-23T01:39:48.666Z,8.62
2023-02-23T01:40:51.214Z,8.55
2023-02-23T01:41:54.200Z,8.79
2023-02-23T01:42:59.281Z,8.91
2023-02-23T01:44:04.028Z,8.97
2023-02-23T01:45:32.090Z,8.94
2023-02-23T01:46:35.450Z,8.97
2023-02-23T01:47:38.101Z,9.06
2023-02-23T01:48:41.469Z,9.07
2023-02-23T01:49:44.693Z,9.02
2023-02-23T01:50:53.024Z,8.83
2023-02-23T01:51:59.540Z,8.65
2023-02-23T01:53:02.421Z,8.80
2023-02-23T01:54:08.949Z,8.87
2023-02-23T01:55:14.079Z,8.91
2023-02-23T01:56:22.130Z,8.83
2023-02-23T01:57:24.998Z,8.95
2023-02-23T01:58:29.965Z,8.82
2023-02-23T01:59:38.076Z,8.94
2023-02-23T02:00:42.104Z,8.86
2023-02-23T02:01:44.091Z,8.85
2023-02-23T02:02:49.037Z,8.76
2023-02-23T02:03:55.488Z,8.81
2023-02-23T02:05:00.201Z,8.87
2023-02-23T02:06:03.898Z,8.44
2023-02-23T02:07:07.851Z,8.38
2023-02-23T02:08:10.584Z,8.26
2023-02-23T02:09:17.637Z,8.40
2023-02-23T02:10:37.589Z,8.40
2023-02-23T02:11:44.391Z,8.71
2023-02-23T02:12:51.992Z,8.78
2023-02-23T02:13:56.994Z,8.78
2023-02-23T02:14:59.888Z,8.53
2023-02-23T02:16:16.629Z,8.37
2023-02-23T02:17:31.913Z,7.95
2023-02-23T02:18:41.803Z,7.98
2023-02-23T02:20:32.703Z,8.21
2023-02-23T02:22:11.833Z,8.62
2023-02-23T02:23:58.885Z,8.83
2023-02-23T02:25:20.664Z,9.04
2023-02-23T02:26:32.271Z,9.08
2023-02-23T02:27:57.900Z,8.96
2023-02-23T02:29:46.098Z,9.03
2023-02-23T02:31:21.036Z,9.08
2023-02-23T02:32:48.628Z,9.23
2023-02-23T02:34:07.977Z,9.12
2023-02-23T02:35:35.032Z,9.28
2023-02-23T02:37:10.948Z,8.90
2023-02-23T02:38:31.387Z,8.89
2023-02-23T02:39:44.881Z,8.96
2023-02-23T02:40:54.248Z,8.66
2023-02-23T02:42:06.458Z,8.52
2023-02-23T02:43:15.438Z,8.64
2023-02-23T02:44:22.117Z,8.83
2023-02-23T02:45:31.707Z,8.98
2023-02-23T02:46:38.754Z,9.02
2023-02-23T02:47:48.679Z,9.14
2023-02-23T02:48:57.810Z,9.27
2023-02-23T02:50:09.358Z,9.31
2023-02-23T02:51:21.961Z,9.42
2023-02-23T02:52:30.464Z,9.48
2023-02-23T02:53:41.753Z,9.57
2023-02-23T02:54:49.665Z,9.59
2023-02-23T02:55:52.886Z,9.47
2023-02-23T02:57:00.436Z,9.38
2023-02-23T02:58:07.678Z,9.39
2023-02-23T02:59:31.458Z,9.29
2023-02-23T03:00:56.103Z,9.28
2023-02-23T03:02:16.832Z,9.08
2023-02-23T03:03:52.322Z,9.27
2023-02-23T03:05:12.463Z,9.41
2023-02-23T03:06:33.302Z,9.46
2023-02-23T03:08:01.217Z,9.44
2023-02-23T03:09:30.276Z,9.36
2023-02-23T03:10:58.275Z,9.34
2023-02-23T03:12:26.094Z,8.71
2023-02-23T03:13:56.108Z,8.84
2023-02-23T03:15:26.272Z,9.03
2023-02-23T03:16:58.155Z,8.77
2023-02-23T03:18:35.461Z,8.94
2023-02-23T03:20:06.944Z,9.10
2023-02-23T03:21:34.718Z,9.24
2023-02-23T03:23:02.303Z,9.36
2023-02-23T03:24:36.061Z,9.39
2023-02-23T03:26:06.554Z,9.46
2023-02-23T03:27:33.858Z,9.52
2023-02-23T03:28:57.600Z,9.58
2023-02-23T03:30:23.626Z,9.53
2023-02-23T03:31:52.740Z,9.41
2023-02-23T03:33:17.027Z,9.43
2023-02-23T03:34:41.905Z,9.35
2023-02-23T03:36:09.728Z,9.30
2023-02-23T03:37:36.973Z,9.29
2023-02-23T03:39:04.857Z,9.21
2023-02-23T03:40:31.916Z,9.27
2023-02-23T03:41:54.558Z,9.38
2023-02-23T03:43:18.311Z,9.34
2023-02-23T03:44:44.708Z,9.46
2023-02-23T03:46:08.225Z,9.48
2023-02-23T03:47:32.858Z,9.48
2023-02-23T03:48:55.388Z,9.48
2023-02-23T03:50:21.915Z,9.40
2023-02-23T03:51:44.606Z,9.46
2023-02-23T03:53:10.375Z,9.56
2023-02-23T03:54:36.130Z,9.44
2023-02-23T03:56:01.442Z,9.44
2023-02-23T03:57:25.890Z,9.36
2023-02-23T03:58:50.529Z,9.42
2023-02-23T04:00:14.104Z,9.52
2023-02-23T04:01:36.435Z,9.34
2023-02-23T04:02:59.852Z,9.22
2023-02-23T04:04:21.644Z,9.31
2023-02-23T04:05:42.734Z,9.41
2023-02-23T04:07:05.699Z,9.47
2023-02-23T04:08:30.881Z,9.44
2023-02-23T04:09:52.324Z,9.45
2023-02-23T04:11:19.534Z,9.33
2023-02-23T04:12:45.012Z,9.30
2023-02-23T04:13:51.770Z,9.31
2023-02-23T04:14:57.528Z,9.14
2023-02-23T04:16:03.195Z,8.92
2023-02-23T04:17:06.334Z,8.89
2023-02-23T04:18:14.937Z,9.07
2023-02-23T04:19:16.530Z,8.99
2023-02-23T04:20:19.096Z,8.52
2023-02-23T04:21:21.191Z,8.38
2023-02-23T04:22:24.640Z,8.65
2023-02-23T04:23:27.089Z,8.88
2023-02-23T04:24:29.539Z,9.03
2023-02-23T04:25:32.494Z,9.19
2023-02-23T04:26:34.992Z,9.17
2023-02-23T04:27:36.869Z,9.18
2023-02-23T04:28:39.363Z,9.30
2023-02-23T04:29:40.988Z,9.38
2023-02-23T04:30:43.558Z,9.41
2023-02-23T04:31:46.219Z,9.44
2023-02-23T04:32:48.885Z,9.49
2023-02-23T04:33:55.032Z,9.54
2023-02-23T04:34:57.487Z,9.59
2023-02-23T04:35:59.005Z,9.61
2023-02-23T04:37:01.534Z,9.63
2023-02-23T04:38:04.042Z,9.37
2023-02-23T04:39:06.577Z,9.14
2023-02-23T04:40:09.461Z,8.83
2023-02-23T04:41:13.570Z,8.26
2023-02-23T04:42:15.447Z,7.68
2023-02-23T04:43:17.942Z,7.24
2023-02-23T04:44:19.680Z,7.34
2023-02-23T04:45:25.057Z,7.34
2023-02-23T04:46:26.683Z,7.50
2023-02-23T04:47:29.209Z,7.60
2023-02-23T04:48:30.755Z,7.93
2023-02-23T04:49:33.209Z,8.22
2023-02-23T04:50:34.840Z,8.07
2023-02-23T04:51:37.389Z,7.99
2023-02-23T04:52:39.012Z,8.15
2023-02-23T04:53:41.505Z,8.35
2023-02-23T04:54:43.316Z,8.62
2023-02-23T04:55:47.372Z,8.81
2023-02-23T04:56:50.261Z,8.93
2023-02-23T04:57:54.155Z,9.01
2023-02-23T04:58:55.668Z,9.00
2023-02-23T04:59:58.379Z,8.89
2023-02-23T05:01:04.793Z,8.96
2023-02-23T05:02:07.537Z,9.01
2023-02-23T05:03:09.279Z,9.11
2023-02-23T05:04:11.782Z,8.85
2023-02-23T05:05:13.265Z,8.94
2023-02-23T05:06:15.855Z,9.03
2023-02-23T05:07:17.496Z,9.14
2023-02-23T05:08:19.945Z,9.19
2023-02-23T05:09:21.461Z,9.05
2023-02-23T05:10:24.134Z,9.15
2023-02-23T05:11:26.576Z,9.21
2023-02-23T05:12:30.732Z,9.24
2023-02-23T05:13:32.544Z,9.09
2023-02-23T05:14:35.052Z,9.05
2023-02-23T05:15:37.285Z,8.93
2023-02-23T05:16:40.430Z,8.58
2023-02-23T05:17:42.486Z,8.32
2023-02-23T05:18:45.060Z,8.19
2023-02-23T05:19:46.608Z,8.36
2023-02-23T05:20:49.058Z,8.58
2023-02-23T05:21:50.683Z,8.83
2023-02-23T05:22:53.121Z,8.96
2023-02-23T05:23:54.746Z,9.04
2023-02-23T05:24:57.599Z,9.17
2023-02-23T05:26:04.141Z,9.19
2023-02-23T05:27:06.663Z,8.82
2023-02-23T05:28:09.523Z,8.47
2023-02-23T05:29:12.072Z,8.38
2023-02-23T05:30:13.909Z,8.57
2023-02-23T05:31:17.336Z,8.73
2023-02-23T05:32:19.094Z,8.73
2023-02-23T05:33:21.788Z,8.81
2023-02-23T05:34:24.135Z,8.96
2023-02-23T05:35:26.690Z,9.07
2023-02-23T05:36:28.763Z,9.21
2023-02-23T05:37:31.232Z,9.20
2023-02-23T05:38:32.715Z,8.97
2023-02-23T05:39:35.511Z,8.93
2023-02-23T05:40:37.952Z,9.14
2023-02-23T05:41:39.897Z,9.24
2023-02-23T05:42:42.377Z,9.31
2023-02-23T05:43:45.288Z,9.32
2023-02-23T05:44:47.761Z,9.30
2023-02-23T05:45:49.207Z,9.35
2023-02-23T05:46:51.655Z,9.42
2023-02-23T05:47:53.197Z,9.21
2023-02-23T05:48:58.135Z,9.33
2023-02-23T05:50:00.027Z,9.39
2023-02-23T05:51:03.518Z,9.43
2023-02-23T05:52:05.215Z,9.50
2023-02-23T05:53:07.889Z,9.59
2023-02-23T05:54:09.534Z,9.64
2023-02-23T05:55:13.277Z,9.68
2023-02-23T05:56:20.474Z,9.70
2023-02-23T05:57:22.966Z,9.75
2023-02-23T05:58:24.966Z,9.71
2023-02-23T05:59:28.760Z,9.72
2023-02-23T06:00:30.337Z,9.68
2023-02-23T06:01:33.212Z,9.69
2023-02-23T06:02:35.212Z,9.69
2023-02-23T06:03:37.832Z,9.58
2023-02-23T06:04:39.477Z,9.18
2023-02-23T06:05:42.210Z,8.86
2023-02-23T06:06:45.392Z,8.92
2023-02-23T06:07:46.924Z,9.03
2023-02-23T06:08:49.766Z,9.27
2023-02-23T06:09:51.400Z,9.40
2023-02-23T06:10:54.131Z,9.54
2023-02-23T06:11:55.939Z,9.61
2023-02-23T06:12:58.525Z,9.67
2023-02-23T06:14:00.690Z,9.73
2023-02-23T06:15:04.949Z,9.65
2023-02-23T06:16:08.406Z,9.64
2023-02-23T06:17:11.579Z,9.71
2023-02-23T06:18:13.148Z,9.78
2023-02-23T06:19:15.612Z,9.82
2023-02-23T06:20:17.284Z,9.83
2023-02-23T06:21:20.768Z,9.84
2023-02-23T06:22:23.024Z,9.88
2023-02-23T06:23:25.509Z,9.86
2023-02-23T06:24:28.683Z,9.85
2023-02-23T06:25:31.194Z,9.84
2023-02-23T06:26:33.252Z,9.72
2023-02-23T06:27:36.039Z,9.79
2023-02-23T06:28:37.635Z,9.81
2023-02-23T06:29:40.051Z,9.85
2023-02-23T06:30:42.980Z,9.94
2023-02-23T06:31:45.541Z,9.84
2023-02-23T06:32:47.086Z,9.75
2023-02-23T06:33:49.707Z,9.79
2023-02-23T06:34:51.183Z,9.65
2023-02-23T06:35:54.788Z,9.64
2023-02-23T06:36:57.436Z,9.41
2023-02-23T06:37:58.943Z,9.48
2023-02-23T06:39:02.032Z,9.61
2023-02-23T06:40:04.955Z,9.53
2023-02-23T06:41:09.058Z,9.61
2023-02-23T06:42:10.581Z,9.73
2023-02-23T06:43:13.260Z,9.78
2023-02-23T06:44:15.663Z,9.87
2023-02-23T06:45:19.169Z,9.78
2023-02-23T06:46:23.143Z,9.83
2023-02-23T06:47:24.659Z,9.81
2023-02-23T06:48:27.187Z,9.83
2023-02-23T06:49:28.890Z,9.90
2023-02-23T06:50:31.537Z,9.99
2023-02-23T06:51:33.006Z,10.09
2023-02-23T06:52:35.461Z,9.89
2023-02-23T06:53:38.314Z,9.82
2023-02-23T06:54:40.055Z,9.80
2023-02-23T06:55:42.535Z,9.69
2023-02-23T06:56:44.091Z,9.55
2023-02-23T06:57:49.693Z,9.57
2023-02-23T06:58:51.668Z,9.35
2023-02-23T06:59:54.452Z,9.49
2023-02-23T07:00:58.512Z,9.49
2023-02-23T07:02:01.857Z,9.55
2023-02-23T07:03:04.605Z,9.49
2023-02-23T07:04:06.264Z,9.61
2023-02-23T07:05:09.880Z,9.59
2023-02-23T07:06:11.425Z,9.61
2023-02-23T07:07:14.065Z,9.72
2023-02-23T07:08:16.316Z,9.83
2023-02-23T07:09:19.078Z,9.94
2023-02-23T07:10:20.944Z,9.92
2023-02-23T07:11:23.454Z,9.89
2023-02-23T07:12:24.953Z,9.98
2023-02-23T07:13:27.357Z,10.00
2023-02-23T07:14:28.898Z,10.06
2023-02-23T07:15:31.339Z,10.07
2023-02-23T07:16:32.897Z,10.08
2023-02-23T07:17:37.103Z,10.09
2023-02-23T07:18:38.803Z,10.05
2023-02-23T07:19:44.680Z,10.06
2023-02-23T07:20:47.093Z,10.03
2023-02-23T07:21:48.862Z,10.10
2023-02-23T07:22:52.178Z,9.99
2023-02-23T07:23:53.718Z,10.12
2023-02-23T07:24:56.128Z,10.08
2023-02-23T07:25:58.086Z,9.78
2023-02-23T07:27:00.533Z,9.69
2023-02-23T07:28:02.886Z,9.77
2023-02-23T07:29:05.322Z,9.92
2023-02-23T07:30:08.750Z,10.06
2023-02-23T07:31:11.309Z,10.19
2023-02-23T07:32:13.063Z,10.05
2023-02-23T07:33:16.990Z,10.21
2023-02-23T07:34:18.522Z,10.33
2023-02-23T07:35:21.561Z,10.34
2023-02-23T07:36:23.806Z,10.45
2023-02-23T07:37:26.568Z,10.44
2023-02-23T07:38:28.678Z,10.32
2023-02-23T07:39:31.258Z,10.30
2023-02-23T07:40:32.837Z,10.31
2023-02-23T07:41:35.329Z,9.93
2023-02-23T07:42:37.207Z,9.83
2023-02-23T07:43:39.638Z,10.10
2023-02-23T07:44:42.142Z,10.15
2023-02-23T07:45:45.606Z,10.20
2023-02-23T07:46:49.483Z,10.44
2023-02-23T07:47:51.064Z,10.61
2023-02-23T07:48:54.972Z,10.69
2023-02-23T07:49:57.379Z,10.65
2023-02-23T07:51:00.156Z,10.80
2023-02-23T07:52:01.927Z,10.93
2023-02-23T07:53:04.386Z,10.81
2023-02-23T07:54:06.649Z,10.87
2023-02-23T07:55:10.863Z,10.80
2023-02-23T07:56:12.901Z,10.81
2023-02-23T07:57:15.615Z,10.91
2023-02-23T07:58:17.101Z,10.88
2023-02-23T07:59:19.569Z,10.84
2023-02-23T08:00:21.790Z,10.98
2023-02-23T08:01:24.407Z,11.08
2023-02-23T08:02:26.232Z,10.82
2023-02-23T08:03:28.902Z,10.86
2023-02-23T08:04:31.802Z,10.89
2023-02-23T08:05:34.417Z,10.92
2023-02-23T08:06:35.986Z,11.10
2023-02-23T08:07:38.694Z,11.28
2023-02-23T08:08:40.332Z,11.00
2023-02-23T08:09:42.832Z,11.16
2023-02-23T08:10:44.344Z,11.00
2023-02-23T08:11:46.763Z,11.06
2023-02-23T08:12:48.314Z,10.76
2023-02-23T08:13:50.759Z,10.98
2023-02-23T08:14:53.588Z,11.20
2023-02-23T08:15:56.112Z,11.22
2023-02-23T08:16:57.693Z,11.18
2023-02-23T08:18:00.746Z,11.27
2023-02-23T08:19:02.849Z,11.25
2023-02-23T08:20:08.171Z,11.40
2023-02-23T08:21:09.681Z,11.61
2023-02-23T08:22:12.126Z,11.73
2023-02-23T08:23:13.676Z,11.80
2023-02-23T08:24:16.168Z,11.91
2023-02-23T08:25:19.008Z,11.82
2023-02-23T08:26:21.460Z,11.94
2023-02-23T08:27:24.012Z,12.01
2023-02-23T08:28:25.540Z,12.17
2023-02-23T08:29:28.092Z,12.19
2023-02-23T08:30:30.658Z,12.27
2023-02-23T08:31:33.352Z,12.36
2023-02-23T08:32:35.890Z,12.41
2023-02-23T08:33:39.191Z,12.48
2023-02-23T08:34:43.227Z,12.42
2023-02-23T08:35:46.129Z,12.51
2023-02-23T08:36:48.563Z,12.34
2023-02-23T08:37:50.216Z,12.50
2023-02-23T08:38:54.199Z,12.52
2023-02-23T08:39:56.726Z,12.70
2023-02-23T08:40:59.994Z,12.51
2023-02-23T08:42:02.927Z,12.57
2023-02-23T08:43:04.376Z,12.67
2023-02-23T08:44:07.125Z,12.66
2023-02-23T08:45:10.034Z,12.67
2023-02-23T08:46:12.805Z,12.80
2023-02-23T08:47:16.353Z,12.86
2023-02-23T08:48:18.792Z,12.84
2023-02-23T08:49:21.435Z,12.75
2023-02-23T08:50:27.265Z,12.78
2023-02-23T08:51:31.382Z,12.87
2023-02-23T08:52:32.927Z,12.84
2023-02-23T08:53:35.396Z,12.94
2023-02-23T08:54:37.786Z,12.78
2023-02-23T08:55:39.280Z,12.63
2023-02-23T08:56:42.175Z,12.63
2023-02-23T08:57:44.851Z,12.72
2023-02-23T08:58:47.602Z,12.90
2023-02-23T08:59:49.152Z,12.86
2023-02-23T09:00:51.687Z,13.07
2023-02-23T09:01:56.168Z,13.18
2023-02-23T09:02:58.611Z,13.11
2023-02-23T09:04:00.419Z,13.16
2023-02-23T09:05:02.861Z,12.84
2023-02-23T09:06:11.085Z,12.94
2023-02-23T09:07:19.265Z,12.96
2023-02-23T09:08:22.873Z,13.04
2023-02-23T09:09:25.321Z,13.24
2023-02-23T09:10:29.012Z,13.28
2023-02-23T09:11:31.410Z,13.41
2023-02-23T09:12:32.988Z,13.32
2023-02-23T09:13:36.049Z,13.47
2023-02-23T09:14:37.542Z,13.56
2023-02-23T09:15:40.841Z,13.55
2023-02-23T09:16:44.479Z,13.58
2023-02-23T09:17:47.263Z,13.55
2023-02-23T09:18:50.099Z,13.52
2023-02-23T09:19:51.858Z,13.52
2023-02-23T09:20:54.672Z,13.59
2023-02-23T09:21:56.229Z,13.60
2023-02-23T09:23:00.186Z,13.71
2023-02-23T09:24:02.392Z,13.76
2023-02-23T09:25:05.623Z,13.81
2023-02-23T09:26:08.860Z,13.76
2023-02-23T09:27:12.731Z,13.82
2023-02-23T09:28:17.031Z,13.89
2023-02-23T09:29:19.421Z,13.88
2023-02-23T09:30:21.429Z,13.97
2023-02-23T09:31:24.938Z,13.73
2023-02-23T09:32:26.714Z,13.80
2023-02-23T09:33:29.266Z,13.97
2023-02-23T09:34:30.748Z,13.87
2023-02-23T09:35:34.441Z,13.83
2023-02-23T09:36:36.985Z,13.86
2023-02-23T09:37:38.468Z,13.89
2023-02-23T09:38:42.231Z,13.75
2023-02-23T09:39:45.645Z,13.89
2023-02-23T09:40:49.822Z,13.94
2023-02-23T09:42:00.569Z,13.92
2023-02-23T09:43:06.895Z,14.10
2023-02-23T09:44:16.655Z,14.12
2023-02-23T09:45:29.896Z,13.65
2023-02-23T09:46:38.812Z,13.37
2023-02-23T09:47:50.460Z,13.80
2023-02-23T09:48:53.022Z,14.02
2023-02-23T09:49:58.857Z,13.84
2023-02-23T09:51:06.106Z,14.04
2023-02-23T09:52:15.880Z,14.11
2023-02-23T09:53:29.347Z,14.14
2023-02-23T09:54:34.439Z,14.09
2023-02-23T09:55:41.436Z,14.03
2023-02-23T09:56:48.509Z,14.16
2023-02-23T09:57:50.582Z,14.30
2023-02-23T09:58:53.306Z,14.16
2023-02-23T09:59:54.895Z,14.14
2023-02-23T10:01:17.988Z,14.10
2023-02-23T10:02:25.369Z,14.10
2023-02-23T10:03:30.722Z,14.13
2023-02-23T10:04:37.883Z,14.17
2023-02-23T10:05:44.430Z,13.97
2023-02-23T10:06:53.390Z,13.98
2023-02-23T10:07:58.789Z,14.09
2023-02-23T10:09:14.448Z,14.06
2023-02-23T10:10:27.703Z,14.33
2023-02-23T10:11:40.349Z,14.36
2023-02-23T10:12:55.259Z,14.01
2023-02-23T10:14:11.526Z,13.81
2023-02-23T10:15:18.891Z,14.07
2023-02-23T10:16:25.559Z,13.82
2023-02-23T10:17:39.986Z,13.52
2023-02-23T10:18:47.949Z,13.44
2023-02-23T10:19:56.551Z,13.26
2023-02-23T10:21:04.159Z,13.11
2023-02-23T10:22:09.188Z,13.07
2023-02-23T10:23:16.085Z,13.21
2023-02-23T10:24:25.231Z,13.30
2023-02-23T10:25:36.487Z,13.10
2023-02-23T10:26:44.064Z,13.24
2023-02-23T10:27:49.480Z,13.34
2023-02-23T10:28:53.764Z,13.50
2023-02-23T10:29:58.705Z,13.78
2023-02-23T10:31:01.999Z,14.02
2023-02-23T10:32:08.865Z,14.15
2023-02-23T10:33:17.002Z,14.03
2023-02-23T10:34:18.648Z,14.16
2023-02-23T10:35:23.457Z,14.18
2023-02-23T10:36:36.661Z,14.42
2023-02-23T10:37:39.342Z,14.60
2023-02-23T10:38:41.093Z,14.73
2023-02-23T10:39:43.776Z,14.83
2023-02-23T10:40:51.386Z,14.94
2023-02-23T10:41:55.769Z,15.01
2023-02-23T10:43:01.161Z,15.03
2023-02-23T10:44:15.805Z,15.29
2023-02-23T10:45:23.618Z,15.22
2023-02-23T10:46:32.582Z,15.03
2023-02-23T10:47:37.606Z,14.97
2023-02-23T10:48:43.195Z,14.78
2023-02-23T10:49:48.425Z,14.78
2023-02-23T10:50:51.811Z,14.66
2023-02-23T10:51:58.098Z,14.88
2023-02-23T10:53:05.533Z,14.91
2023-02-23T10:54:38.900Z,14.89
2023-02-23T10:55:41.435Z,14.96
2023-02-23T10:56:46.399Z,15.06
2023-02-23T10:57:49.124Z,15.24
2023-02-23T10:58:53.709Z,15.25
2023-02-23T11:00:01.056Z,15.22
2023-02-23T11:01:06.311Z,15.07
2023-02-23T11:02:21.820Z,15.20
2023-02-23T11:03:29.413Z,15.02
2023-02-23T11:04:35.031Z,15.12
2023-02-23T11:05:45.463Z,15.31
2023-02-23T11:06:48.622Z,15.50
2023-02-23T11:07:51.542Z,15.64
2023-02-23T11:08:54.602Z,15.66
2023-02-23T11:09:56.622Z,15.38
2023-02-23T11:11:15.985Z,15.39
2023-02-23T11:12:25.569Z,15.41
2023-02-23T11:13:29.163Z,15.57
2023-02-23T11:14:33.141Z,15.56
2023-02-23T11:15:50.615Z,15.34
2023-02-23T11:16:57.043Z,15.23
2023-02-23T11:18:00.684Z,15.41
2023-02-23T11:19:05.230Z,15.49
2023-02-23T11:20:24.868Z,15.73
2023-02-23T11:21:33.532Z,15.71
2023-02-23T11:22:37.182Z,16.01
2023-02-23T11:23:41.586Z,16.13
2023-02-23T11:24:45.780Z,16.37
2023-02-23T11:25:49.556Z,16.28
2023-02-23T11:26:53.989Z,16.24
2023-02-23T11:27:58.748Z,16.32
2023-02-23T11:29:05.656Z,16.53
2023-02-23T11:30:12.981Z,16.43
2023-02-23T11:31:19.199Z,16.01
2023-02-23T11:32:24.632Z,15.97
2023-02-23T11:33:31.535Z,15.86
2023-02-23T11:34:41.030Z,15.64
2023-02-23T11:35:42.707Z,15.68
2023-02-23T11:36:45.213Z,15.53
2023-02-23T11:37:47.070Z,15.86
2023-02-23T11:39:02.046Z,15.77
2023-02-23T11:40:20.268Z,15.87
2023-02-23T11:41:25.044Z,16.24
2023-02-23T11:42:33.450Z,16.55
2023-02-23T11:43:36.385Z,16.33
2023-02-23T11:44:38.950Z,16.34
2023-02-23T11:45:48.278Z,16.29
2023-02-23T11:46:51.442Z,16.23
2023-02-23T11:47:56.200Z,16.16
2023-02-23T11:49:01.900Z,16.24
2023-02-23T11:50:05.936Z,16.20
2023-02-23T11:51:07.698Z,16.10
2023-02-23T11:52:16.144Z,16.21
2023-02-23T11:53:22.295Z,16.20
2023-02-23T11:54:28.442Z,16.33
2023-02-23T11:55:32.758Z,16.74
2023-02-23T11:56:35.515Z,16.90
2023-02-23T11:57:38.271Z,16.79
2023-02-23T11:58:44.827Z,16.69
2023-02-23T11:59:48.123Z,16.30
2023-02-23T12:00:58.616Z,16.29
2023-02-23T12:02:07.637Z,15.96
2023-02-23T12:03:22.860Z,15.95
2023-02-23T12:04:30.164Z,16.11
2023-02-23T12:05:34.152Z,16.16
2023-02-23T12:06:39.129Z,16.32
2023-02-23T12:07:47.620Z,16.46
2023-02-23T12:08:54.674Z,16.36
2023-02-23T12:10:03.605Z,16.24
2023-02-23T12:11:13.502Z,16.42
2023-02-23T12:12:20.402Z,16.54
2023-02-23T12:13:30.067Z,16.49
2023-02-23T12:14:41.140Z,16.12
2023-02-23T12:15:50.547Z,15.90
2023-02-23T12:16:55.966Z,15.66
2023-02-23T12:18:04.154Z,15.85
2023-02-23T12:19:21.768Z,15.80
2023-02-23T12:20:28.030Z,15.89
2023-02-23T12:21:37.373Z,15.85
2023-02-23T12:22:44.608Z,15.88
2023-02-23T12:23:52.503Z,15.96
2023-02-23T12:25:02.796Z,16.05
2023-02-23T12:26:11.753Z,15.25
2023-02-23T12:27:18.448Z,14.26
2023-02-23T12:28:27.282Z,14.54
2023-02-23T12:29:36.238Z,14.94
2023-02-23T12:30:46.337Z,15.06
2023-02-23T12:31:54.226Z,15.19
2023-02-23T12:33:00.492Z,15.24
2023-02-23T12:34:12.464Z,15.09
2023-02-23T12:35:21.379Z,15.23
2023-02-23T12:36:31.695Z,15.40
2023-02-23T12:37:39.897Z,15.52
2023-02-23T12:38:51.732Z,15.44
2023-02-23T12:39:59.529Z,15.33
2023-02-23T12:41:07.984Z,15.50
2023-02-23T12:42:16.944Z,15.65
2023-02-23T12:43:26.032Z,15.79
2023-02-23T12:44:38.219Z,15.75
2023-02-23T12:45:48.691Z,15.84
2023-02-23T12:46:54.417Z,15.85
2023-02-23T12:48:12.727Z,15.99
2023-02-23T12:49:25.554Z,15.83
2023-02-23T12:50:30.543Z,15.83
2023-02-23T12:51:36.830Z,15.46
2023-02-23T12:52:44.247Z,15.42
2023-02-23T12:53:47.307Z,15.27
2023-02-23T12:54:50.133Z,15.30
2023-02-23T12:56:15.881Z,15.31
2023-02-23T12:57:28.884Z,15.52
2023-02-23T12:58:41.888Z,15.55
2023-02-23T13:00:05.026Z,15.58
2023-02-23T13:01:12.727Z,15.66
2023-02-23T13:02:23.378Z,15.31
2023-02-23T13:03:46.407Z,15.16
2023-02-23T13:05:13.099Z,15.29
2023-02-23T13:06:23.697Z,15.34
2023-02-23T13:07:38.434Z,15.34
2023-02-23T13:08:55.307Z,15.37
2023-02-23T13:10:13.010Z,15.46
2023-02-23T13:11:25.118Z,15.24
2023-02-23T13:12:45.153Z,15.14
2023-02-23T13:13:51.763Z,15.26
2023-02-23T13:15:03.055Z,15.04
2023-02-23T13:16:17.726Z,14.99
2023-02-23T13:17:38.070Z,15.20
2023-02-23T13:18:47.754Z,15.24
2023-02-23T13:19:56.048Z,15.10
2023-02-23T13:21:12.600Z,15.09
2023-02-23T13:22:27.729Z,15.20
2023-02-23T13:23:37.279Z,15.23
2023-02-23T13:24:42.998Z,14.96
2023-02-23T13:25:54.408Z,15.11
2023-02-23T13:27:01.773Z,15.36
2023-02-23T13:28:04.212Z,15.47
2023-02-23T13:29:11.776Z,15.47
2023-02-23T13:30:16.576Z,15.56
2023-02-23T13:31:26.477Z,15.30
2023-02-23T13:32:32.947Z,14.92
2023-02-23T13:33:43.932Z,14.96
2023-02-23T13:34:52.465Z,14.87
2023-02-23T13:35:55.888Z,14.84
2023-02-23T13:37:01.848Z,14.79
2023-02-23T13:38:15.337Z,14.72
2023-02-23T13:39:46.293Z,14.87
2023-02-23T13:40:54.642Z,14.93
2023-02-23T13:42:09.697Z,15.06
2023-02-23T13:43:23.039Z,15.07
2023-02-23T13:44:31.810Z,14.93
2023-02-23T13:45:49.705Z,15.06
2023-02-23T13:46:59.014Z,15.18
2023-02-23T13:48:07.795Z,15.13
2023-02-23T13:49:24.765Z,15.00
2023-02-23T13:50:32.222Z,15.01
2023-02-23T13:51:42.799Z,14.96
2023-02-23T13:52:46.189Z,14.86
2023-02-23T13:54:01.094Z,14.53
2023-02-23T13:55:04.320Z,14.59
2023-02-23T13:56:10.200Z,14.36
2023-02-23T13:57:16.718Z,14.40
2023-02-23T13:58:27.610Z,14.59
2023-02-23T13:59:33.170Z,14.36
2023-02-23T14:00:34.932Z,14.52
2023-02-23T14:01:40.011Z,14.56
2023-02-23T14:02:43.014Z,14.56
2023-02-23T14:03:55.677Z,14.50
2023-02-23T14:05:02.104Z,14.52
2023-02-23T14:06:04.380Z,14.28
2023-02-23T14:07:19.627Z,14.07
2023-02-23T14:08:27.964Z,14.16
2023-02-23T14:09:33.676Z,14.14
2023-02-23T14:10:39.005Z,14.25
2023-02-23T14:11:52.447Z,14.36
2023-02-23T14:13:07.166Z,14.18
2023-02-23T14:14:14.211Z,14.25
2023-02-23T14:15:41.632Z,14.37
2023-02-23T14:16:46.431Z,14.56
2023-02-23T14:18:00.574Z,14.70
2023-02-23T14:19:32.044Z,14.79
2023-02-23T14:20:47.894Z,14.81
2023-02-23T14:21:52.930Z,14.91
2023-02-23T14:23:26.886Z,14.68
2023-02-23T14:24:29.777Z,14.73
2023-02-23T14:25:45.490Z,14.92
2023-02-23T14:27:40.255Z,15.05
2023-02-23T14:28:45.861Z,15.16
2023-02-23T14:30:14.856Z,15.21
2023-02-23T14:31:21.361Z,15.25
2023-02-23T14:32:30.905Z,15.26
2023-02-23T14:33:50.069Z,15.14
2023-02-23T14:34:56.978Z,14.88
2023-02-23T14:36:02.553Z,14.83
2023-02-23T14:37:17.593Z,14.75
2023-02-23T14:38:46.815Z,14.63
2023-02-23T14:39:50.944Z,14.57
2023-02-23T14:40:55.325Z,14.50